BIK weather

Frans Kaisiepo Airport
Biak-Supiori Island, Papua, Indonesia

Public forecast

Using degrees Celsius for public forecast. Weather courtesy of forecast.io.

METAR (pilot weather report)

Report is more than 6 hours old.

Retrieved 2019/06/17 13:00 UTC (7 hours ago):

WABB 171300Z 30003KT 9999 SCT018 OVC100 26/24 Q1011 NOSIG

TAF (pilot weather forecast)

Retrieved 2019/06/17 18:24 UTC (2 hours ago):

TAF WABB 171700Z 1718/1900 32003KT 9999 SCT018 BECMG 1722/1800 24009KT